sensor_id;sensor_type;location;lat;lon;timestamp;temperature;humidity
22450;DHT22;11392;57.390;-2.468;2022-12-11T00:00:22;2.30;99.90
22450;DHT22;11392;57.390;-2.468;2022-12-11T00:02:49;2.30;99.90
22450;DHT22;11392;57.390;-2.468;2022-12-11T00:05:16;2.20;99.90
22450;DHT22;11392;57.390;-2.468;2022-12-11T00:07:43;2.20;99.90
22450;DHT22;11392;57.390;-2.468;2022-12-11T00:10:10;2.20;99.90
22450;DHT22;11392;57.390;-2.468;2022-12-11T00:12:37;2.20;99.90
22450;DHT22;11392;57.390;-2.468;2022-12-11T00:15:04;2.20;99.90
22450;DHT22;11392;57.390;-2.468;2022-12-11T00:17:31;2.20;99.90
22450;DHT22;11392;57.390;-2.468;2022-12-11T00:19:58;2.20;99.90
22450;DHT22;11392;57.390;-2.468;2022-12-11T00:22:25;2.20;99.90
22450;DHT22;11392;57.390;-2.468;2022-12-11T00:24:52;2.20;99.90
22450;DHT22;11392;57.390;-2.468;2022-12-11T00:27:19;2.20;99.90
22450;DHT22;11392;57.390;-2.468;2022-12-11T00:29:46;2.20;99.90
22450;DHT22;11392;57.390;-2.468;2022-12-11T00:32:13;2.20;99.90
22450;DHT22;11392;57.390;-2.468;2022-12-11T00:34:40;2.10;99.90
22450;DHT22;11392;57.390;-2.468;2022-12-11T00:37:07;2.10;99.90
22450;DHT22;11392;57.390;-2.468;2022-12-11T00:39:34;2.10;99.90
22450;DHT22;11392;57.390;-2.468;2022-12-11T00:42:02;2.10;99.90
22450;DHT22;11392;57.390;-2.468;2022-12-11T00:44:29;2.10;99.90
22450;DHT22;11392;57.390;-2.468;2022-12-11T00:46:56;2.10;99.90
22450;DHT22;11392;57.390;-2.468;2022-12-11T00:49:23;2.00;99.90
22450;DHT22;11392;57.390;-2.468;2022-12-11T00:51:50;2.00;99.90
22450;DHT22;11392;57.390;-2.468;2022-12-11T00:54:17;2.00;99.90
22450;DHT22;11392;57.390;-2.468;2022-12-11T00:56:44;2.00;99.90
22450;DHT22;11392;57.390;-2.468;2022-12-11T00:59:11;2.00;99.90
22450;DHT22;11392;57.390;-2.468;2022-12-11T01:01:38;2.00;99.90
22450;DHT22;11392;57.390;-2.468;2022-12-11T01:04:05;2.00;99.90
22450;DHT22;11392;57.390;-2.468;2022-12-11T01:06:32;2.00;99.90
22450;DHT22;11392;57.390;-2.468;2022-12-11T01:08:59;2.00;99.90
22450;DHT22;11392;57.390;-2.468;2022-12-11T01:11:44;2.00;99.90
22450;DHT22;11392;57.390;-2.468;2022-12-11T01:14:11;2.00;99.90
22450;DHT22;11392;57.390;-2.468;2022-12-11T01:16:38;2.00;99.90
22450;DHT22;11392;57.390;-2.468;2022-12-11T01:19:05;2.00;99.90
22450;DHT22;11392;57.390;-2.468;2022-12-11T01:21:32;2.00;99.90
22450;DHT22;11392;57.390;-2.468;2022-12-11T01:23:59;1.90;99.90
22450;DHT22;11392;57.390;-2.468;2022-12-11T01:26:26;1.90;99.90
22450;DHT22;11392;57.390;-2.468;2022-12-11T01:28:53;1.90;99.90
22450;DHT22;11392;57.390;-2.468;2022-12-11T01:31:20;1.90;99.90
22450;DHT22;11392;57.390;-2.468;2022-12-11T01:33:48;1.80;99.90
22450;DHT22;11392;57.390;-2.468;2022-12-11T01:36:18;1.80;99.90
22450;DHT22;11392;57.390;-2.468;2022-12-11T01:38:46;1.70;99.90
22450;DHT22;11392;57.390;-2.468;2022-12-11T01:41:15;1.70;99.90
22450;DHT22;11392;57.390;-2.468;2022-12-11T01:46:25;1.60;99.90
22450;DHT22;11392;57.390;-2.468;2022-12-11T01:48:53;1.60;99.90
22450;DHT22;11392;57.390;-2.468;2022-12-11T01:51:21;1.60;99.90
22450;DHT22;11392;57.390;-2.468;2022-12-11T01:53:53;1.50;99.90
22450;DHT22;11392;57.390;-2.468;2022-12-11T01:56:22;1.50;99.90
22450;DHT22;11392;57.390;-2.468;2022-12-11T01:58:54;1.50;99.90
22450;DHT22;11392;57.390;-2.468;2022-12-11T02:04:00;1.40;99.90
22450;DHT22;11392;57.390;-2.468;2022-12-11T02:06:43;1.40;99.90
22450;DHT22;11392;57.390;-2.468;2022-12-11T02:09:15;1.40;99.90
22450;DHT22;11392;57.390;-2.468;2022-12-11T02:15:53;1.50;99.90
22450;DHT22;11392;57.390;-2.468;2022-12-11T02:28:57;1.40;99.90
22450;DHT22;11392;57.390;-2.468;2022-12-11T02:31:28;1.40;99.90
22450;DHT22;11392;57.390;-2.468;2022-12-11T02:34:03;1.40;99.90
22450;DHT22;11392;57.390;-2.468;2022-12-11T02:36:36;1.30;99.90
22450;DHT22;11392;57.390;-2.468;2022-12-11T02:39:06;1.40;99.90
22450;DHT22;11392;57.390;-2.468;2022-12-11T02:41:35;1.40;99.90
22450;DHT22;11392;57.390;-2.468;2022-12-11T02:44:03;1.40;99.90
22450;DHT22;11392;57.390;-2.468;2022-12-11T02:46:32;1.50;99.90
22450;DHT22;11392;57.390;-2.468;2022-12-11T02:49:03;1.50;99.90
22450;DHT22;11392;57.390;-2.468;2022-12-11T02:51:37;1.50;99.90
22450;DHT22;11392;57.390;-2.468;2022-12-11T02:54:10;1.50;99.90
22450;DHT22;11392;57.390;-2.468;2022-12-11T02:56:49;1.40;99.90
22450;DHT22;11392;57.390;-2.468;2022-12-11T02:59:21;1.40;99.90
22450;DHT22;11392;57.390;-2.468;2022-12-11T03:01:49;1.30;99.90
22450;DHT22;11392;57.390;-2.468;2022-12-11T03:04:16;1.30;99.90
22450;DHT22;11392;57.390;-2.468;2022-12-11T03:06:48;1.30;99.90
22450;DHT22;11392;57.390;-2.468;2022-12-11T03:09:16;1.30;99.90
22450;DHT22;11392;57.390;-2.468;2022-12-11T03:11:43;1.30;99.90
22450;DHT22;11392;57.390;-2.468;2022-12-11T03:14:11;1.30;99.90
22450;DHT22;11392;57.390;-2.468;2022-12-11T03:16:58;1.30;99.90
22450;DHT22;11392;57.390;-2.468;2022-12-11T03:19:44;1.30;99.90
22450;DHT22;11392;57.390;-2.468;2022-12-11T03:22:33;1.40;99.90
22450;DHT22;11392;57.390;-2.468;2022-12-11T03:25:15;1.40;99.90
22450;DHT22;11392;57.390;-2.468;2022-12-11T03:28:06;1.40;99.90
22450;DHT22;11392;57.390;-2.468;2022-12-11T03:30:36;1.50;99.90
22450;DHT22;11392;57.390;-2.468;2022-12-11T03:33:12;1.50;99.90
22450;DHT22;11392;57.390;-2.468;2022-12-11T03:35:50;1.50;99.90
22450;DHT22;11392;57.390;-2.468;2022-12-11T03:38:29;1.50;99.90
22450;DHT22;11392;57.390;-2.468;2022-12-11T03:41:00;1.50;99.90
22450;DHT22;11392;57.390;-2.468;2022-12-11T03:43:28;1.40;99.90
22450;DHT22;11392;57.390;-2.468;2022-12-11T03:45:58;1.40;99.90
22450;DHT22;11392;57.390;-2.468;2022-12-11T03:48:32;1.40;99.90
22450;DHT22;11392;57.390;-2.468;2022-12-11T03:51:04;1.30;99.90
22450;DHT22;11392;57.390;-2.468;2022-12-11T03:53:33;1.30;99.90
22450;DHT22;11392;57.390;-2.468;2022-12-11T03:56:03;1.30;99.90
22450;DHT22;11392;57.390;-2.468;2022-12-11T03:58:31;1.30;99.90
22450;DHT22;11392;57.390;-2.468;2022-12-11T04:00:59;1.20;99.90
22450;DHT22;11392;57.390;-2.468;2022-12-11T04:03:26;1.00;99.90
22450;DHT22;11392;57.390;-2.468;2022-12-11T04:05:54;0.90;99.90
22450;DHT22;11392;57.390;-2.468;2022-12-11T04:08:22;0.90;99.90
22450;DHT22;11392;57.390;-2.468;2022-12-11T04:10:50;0.80;99.90
22450;DHT22;11392;57.390;-2.468;2022-12-11T04:13:36;0.80;99.90
22450;DHT22;11392;57.390;-2.468;2022-12-11T04:16:04;0.70;99.90
22450;DHT22;11392;57.390;-2.468;2022-12-11T04:18:31;0.70;99.90
22450;DHT22;11392;57.390;-2.468;2022-12-11T04:21:17;0.80;99.90
22450;DHT22;11392;57.390;-2.468;2022-12-11T04:24:06;0.80;99.90
22450;DHT22;11392;57.390;-2.468;2022-12-11T04:26:43;0.80;99.90
22450;DHT22;11392;57.390;-2.468;2022-12-11T04:29:11;0.70;99.90
22450;DHT22;11392;57.390;-2.468;2022-12-11T04:31:39;0.60;99.90
22450;DHT22;11392;57.390;-2.468;2022-12-11T04:34:06;0.60;99.90
22450;DHT22;11392;57.390;-2.468;2022-12-11T04:36:33;0.50;99.90
22450;DHT22;11392;57.390;-2.468;2022-12-11T04:39:00;0.40;99.90
22450;DHT22;11392;57.390;-2.468;2022-12-11T04:41:26;0.50;99.90
22450;DHT22;11392;57.390;-2.468;2022-12-11T04:43:53;0.50;99.90
22450;DHT22;11392;57.390;-2.468;2022-12-11T04:46:23;0.60;99.90
22450;DHT22;11392;57.390;-2.468;2022-12-11T04:48:51;0.70;99.90
22450;DHT22;11392;57.390;-2.468;2022-12-11T04:51:23;0.60;99.90
22450;DHT22;11392;57.390;-2.468;2022-12-11T04:53:50;0.60;99.90
22450;DHT22;11392;57.390;-2.468;2022-12-11T04:56:17;0.60;99.90
22450;DHT22;11392;57.390;-2.468;2022-12-11T04:58:45;0.60;99.90
22450;DHT22;11392;57.390;-2.468;2022-12-11T05:01:17;0.60;99.90
22450;DHT22;11392;57.390;-2.468;2022-12-11T05:03:44;0.60;99.90
22450;DHT22;11392;57.390;-2.468;2022-12-11T05:06:12;0.60;99.90
22450;DHT22;11392;57.390;-2.468;2022-12-11T05:08:40;0.50;99.90
22450;DHT22;11392;57.390;-2.468;2022-12-11T05:11:10;0.60;99.90
22450;DHT22;11392;57.390;-2.468;2022-12-11T05:13:37;0.50;99.90
22450;DHT22;11392;57.390;-2.468;2022-12-11T05:16:06;0.60;99.90
22450;DHT22;11392;57.390;-2.468;2022-12-11T05:18:34;0.50;99.90
22450;DHT22;11392;57.390;-2.468;2022-12-11T05:21:07;0.50;99.90
22450;DHT22;11392;57.390;-2.468;2022-12-11T05:23:35;0.60;99.90
22450;DHT22;11392;57.390;-2.468;2022-12-11T05:26:06;0.50;99.90
22450;DHT22;11392;57.390;-2.468;2022-12-11T05:28:35;0.50;99.90
22450;DHT22;11392;57.390;-2.468;2022-12-11T05:31:23;0.50;99.90
22450;DHT22;11392;57.390;-2.468;2022-12-11T05:33:51;0.50;99.90
22450;DHT22;11392;57.390;-2.468;2022-12-11T05:36:27;0.50;99.90
22450;DHT22;11392;57.390;-2.468;2022-12-11T05:38:56;0.40;99.90
22450;DHT22;11392;57.390;-2.468;2022-12-11T05:41:26;0.40;99.90
22450;DHT22;11392;57.390;-2.468;2022-12-11T05:43:53;0.30;99.90
22450;DHT22;11392;57.390;-2.468;2022-12-11T05:46:23;0.30;99.90
22450;DHT22;11392;57.390;-2.468;2022-12-11T05:48:53;0.20;99.90
22450;DHT22;11392;57.390;-2.468;2022-12-11T05:51:20;0.20;99.90
22450;DHT22;11392;57.390;-2.468;2022-12-11T05:53:49;0.20;99.90
22450;DHT22;11392;57.390;-2.468;2022-12-11T05:56:20;0.20;99.90
22450;DHT22;11392;57.390;-2.468;2022-12-11T05:58:48;0.20;99.90
22450;DHT22;11392;57.390;-2.468;2022-12-11T06:01:24;0.20;99.90
22450;DHT22;11392;57.390;-2.468;2022-12-11T06:03:53;0.20;99.90
22450;DHT22;11392;57.390;-2.468;2022-12-11T06:06:20;0.20;99.90
22450;DHT22;11392;57.390;-2.468;2022-12-11T06:08:51;0.20;99.90
22450;DHT22;11392;57.390;-2.468;2022-12-11T06:11:19;0.10;99.90
22450;DHT22;11392;57.390;-2.468;2022-12-11T06:13:50;0.10;99.90
22450;DHT22;11392;57.390;-2.468;2022-12-11T06:16:18;0.10;99.90
22450;DHT22;11392;57.390;-2.468;2022-12-11T06:18:46;0.00;99.90
22450;DHT22;11392;57.390;-2.468;2022-12-11T06:21:18;0.00;99.90
22450;DHT22;11392;57.390;-2.468;2022-12-11T06:23:46;-0.20;99.90
22450;DHT22;11392;57.390;-2.468;2022-12-11T06:26:15;-0.10;99.90
22450;DHT22;11392;57.390;-2.468;2022-12-11T06:28:43;-0.10;99.90
22450;DHT22;11392;57.390;-2.468;2022-12-11T06:31:10;0.00;99.90
22450;DHT22;11392;57.390;-2.468;2022-12-11T06:33:37;0.20;99.90
22450;DHT22;11392;57.390;-2.468;2022-12-11T06:36:10;0.30;99.90
22450;DHT22;11392;57.390;-2.468;2022-12-11T06:38:38;0.30;99.90
22450;DHT22;11392;57.390;-2.468;2022-12-11T06:41:05;0.40;99.90
22450;DHT22;11392;57.390;-2.468;2022-12-11T06:43:35;0.40;99.90
22450;DHT22;11392;57.390;-2.468;2022-12-11T06:46:03;0.40;99.90
22450;DHT22;11392;57.390;-2.468;2022-12-11T06:48:31;0.50;99.90
22450;DHT22;11392;57.390;-2.468;2022-12-11T06:50:58;0.50;99.90
22450;DHT22;11392;57.390;-2.468;2022-12-11T06:53:25;0.60;99.90
22450;DHT22;11392;57.390;-2.468;2022-12-11T06:55:52;0.60;99.90
22450;DHT22;11392;57.390;-2.468;2022-12-11T06:58:19;0.70;99.90
22450;DHT22;11392;57.390;-2.468;2022-12-11T07:00:46;0.70;99.90
22450;DHT22;11392;57.390;-2.468;2022-12-11T07:03:13;0.80;99.90
22450;DHT22;11392;57.390;-2.468;2022-12-11T07:05:40;0.80;99.90
22450;DHT22;11392;57.390;-2.468;2022-12-11T07:08:07;0.80;99.90
22450;DHT22;11392;57.390;-2.468;2022-12-11T07:10:34;0.90;99.90
22450;DHT22;11392;57.390;-2.468;2022-12-11T07:13:01;0.90;99.90
22450;DHT22;11392;57.390;-2.468;2022-12-11T07:15:28;0.90;99.90
22450;DHT22;11392;57.390;-2.468;2022-12-11T07:17:55;0.90;99.90
22450;DHT22;11392;57.390;-2.468;2022-12-11T07:20:22;0.90;99.90
22450;DHT22;11392;57.390;-2.468;2022-12-11T07:22:49;0.90;99.90
22450;DHT22;11392;57.390;-2.468;2022-12-11T07:25:16;0.80;99.90
22450;DHT22;11392;57.390;-2.468;2022-12-11T07:27:44;0.90;99.90
22450;DHT22;11392;57.390;-2.468;2022-12-11T07:30:11;0.90;99.90
22450;DHT22;11392;57.390;-2.468;2022-12-11T07:32:38;0.90;99.90
22450;DHT22;11392;57.390;-2.468;2022-12-11T07:35:06;0.90;99.90
22450;DHT22;11392;57.390;-2.468;2022-12-11T07:37:33;0.90;99.90
22450;DHT22;11392;57.390;-2.468;2022-12-11T07:40:00;0.90;99.90
22450;DHT22;11392;57.390;-2.468;2022-12-11T07:42:27;0.80;99.90
22450;DHT22;11392;57.390;-2.468;2022-12-11T07:44:54;0.80;99.90
22450;DHT22;11392;57.390;-2.468;2022-12-11T07:47:21;0.80;99.90
22450;DHT22;11392;57.390;-2.468;2022-12-11T07:49:48;0.80;99.90
22450;DHT22;11392;57.390;-2.468;2022-12-11T07:52:15;0.80;99.90
22450;DHT22;11392;57.390;-2.468;2022-12-11T07:54:42;0.80;99.90
22450;DHT22;11392;57.390;-2.468;2022-12-11T07:57:09;0.70;99.90
22450;DHT22;11392;57.390;-2.468;2022-12-11T07:59:40;0.70;99.90
22450;DHT22;11392;57.390;-2.468;2022-12-11T08:02:09;0.60;99.90
22450;DHT22;11392;57.390;-2.468;2022-12-11T08:04:37;0.60;99.90
22450;DHT22;11392;57.390;-2.468;2022-12-11T08:07:04;0.60;99.90
22450;DHT22;11392;57.390;-2.468;2022-12-11T08:09:32;0.60;99.90
22450;DHT22;11392;57.390;-2.468;2022-12-11T08:11:59;0.50;99.90
22450;DHT22;11392;57.390;-2.468;2022-12-11T08:14:26;0.40;99.90
22450;DHT22;11392;57.390;-2.468;2022-12-11T08:16:53;0.30;99.90
22450;DHT22;11392;57.390;-2.468;2022-12-11T08:19:20;0.40;99.90
22450;DHT22;11392;57.390;-2.468;2022-12-11T08:21:47;0.40;99.90
22450;DHT22;11392;57.390;-2.468;2022-12-11T08:24:14;0.40;99.90
22450;DHT22;11392;57.390;-2.468;2022-12-11T08:26:46;0.40;99.90
22450;DHT22;11392;57.390;-2.468;2022-12-11T08:29:14;0.40;99.90
22450;DHT22;11392;57.390;-2.468;2022-12-11T08:31:41;0.30;99.90
22450;DHT22;11392;57.390;-2.468;2022-12-11T08:34:08;0.40;99.90
22450;DHT22;11392;57.390;-2.468;2022-12-11T08:36:39;0.30;99.90
22450;DHT22;11392;57.390;-2.468;2022-12-11T08:39:06;0.30;99.90
22450;DHT22;11392;57.390;-2.468;2022-12-11T08:41:34;0.40;99.90
22450;DHT22;11392;57.390;-2.468;2022-12-11T08:44:00;0.40;99.90
22450;DHT22;11392;57.390;-2.468;2022-12-11T08:46:29;0.30;99.90
22450;DHT22;11392;57.390;-2.468;2022-12-11T08:48:57;0.30;99.90
22450;DHT22;11392;57.390;-2.468;2022-12-11T08:51:26;0.30;99.90
22450;DHT22;11392;57.390;-2.468;2022-12-11T08:53:56;0.30;99.90
22450;DHT22;11392;57.390;-2.468;2022-12-11T08:56:27;0.30;99.90
22450;DHT22;11392;57.390;-2.468;2022-12-11T08:58:54;0.30;99.90
22450;DHT22;11392;57.390;-2.468;2022-12-11T09:01:23;0.30;99.90
22450;DHT22;11392;57.390;-2.468;2022-12-11T09:03:52;0.20;99.90
22450;DHT22;11392;57.390;-2.468;2022-12-11T09:06:22;0.30;99.90
22450;DHT22;11392;57.390;-2.468;2022-12-11T09:08:50;0.20;99.90
22450;DHT22;11392;57.390;-2.468;2022-12-11T09:11:24;0.30;99.90
22450;DHT22;11392;57.390;-2.468;2022-12-11T09:13:52;0.40;99.90
22450;DHT22;11392;57.390;-2.468;2022-12-11T09:16:22;0.70;99.90
22450;DHT22;11392;57.390;-2.468;2022-12-11T09:18:51;1.00;99.90
22450;DHT22;11392;57.390;-2.468;2022-12-11T09:21:21;1.30;99.90
22450;DHT22;11392;57.390;-2.468;2022-12-11T09:23:52;1.40;99.90
22450;DHT22;11392;57.390;-2.468;2022-12-11T09:26:20;1.60;99.90
22450;DHT22;11392;57.390;-2.468;2022-12-11T09:28:47;1.80;99.90
22450;DHT22;11392;57.390;-2.468;2022-12-11T09:31:17;2.00;99.90
22450;DHT22;11392;57.390;-2.468;2022-12-11T09:33:44;2.00;99.90
22450;DHT22;11392;57.390;-2.468;2022-12-11T09:36:12;1.80;99.90
22450;DHT22;11392;57.390;-2.468;2022-12-11T09:38:39;2.00;99.90
22450;DHT22;11392;57.390;-2.468;2022-12-11T09:41:36;2.30;99.90
22450;DHT22;11392;57.390;-2.468;2022-12-11T09:46:31;3.10;99.90
22450;DHT22;11392;57.390;-2.468;2022-12-11T09:49:02;3.20;99.90
22450;DHT22;11392;57.390;-2.468;2022-12-11T09:51:53;3.30;99.90
22450;DHT22;11392;57.390;-2.468;2022-12-11T09:54:23;3.60;99.90
22450;DHT22;11392;57.390;-2.468;2022-12-11T09:57:14;3.60;99.90
22450;DHT22;11392;57.390;-2.468;2022-12-11T10:07:51;3.00;99.90
22450;DHT22;11392;57.390;-2.468;2022-12-11T10:18:40;2.50;99.90
22450;DHT22;11392;57.390;-2.468;2022-12-11T10:21:08;2.40;99.90
22450;DHT22;11392;57.390;-2.468;2022-12-11T10:23:42;2.30;99.90
22450;DHT22;11392;57.390;-2.468;2022-12-11T10:26:18;2.20;99.90
22450;DHT22;11392;57.390;-2.468;2022-12-11T10:28:46;2.30;99.90
22450;DHT22;11392;57.390;-2.468;2022-12-11T10:31:17;2.30;99.90
22450;DHT22;11392;57.390;-2.468;2022-12-11T10:34:11;2.30;99.90
22450;DHT22;11392;57.390;-2.468;2022-12-11T10:36:40;2.20;99.90
22450;DHT22;11392;57.390;-2.468;2022-12-11T10:39:20;2.10;99.90
22450;DHT22;11392;57.390;-2.468;2022-12-11T10:41:49;2.00;99.90
22450;DHT22;11392;57.390;-2.468;2022-12-11T10:44:34;1.90;99.90
22450;DHT22;11392;57.390;-2.468;2022-12-11T10:49:37;1.60;99.90
22450;DHT22;11392;57.390;-2.468;2022-12-11T10:52:17;1.50;99.90
22450;DHT22;11392;57.390;-2.468;2022-12-11T10:54:46;1.50;99.90
22450;DHT22;11392;57.390;-2.468;2022-12-11T10:57:29;1.50;99.90
22450;DHT22;11392;57.390;-2.468;2022-12-11T10:59:57;1.50;99.90
22450;DHT22;11392;57.390;-2.468;2022-12-11T11:02:28;1.50;99.90
22450;DHT22;11392;57.390;-2.468;2022-12-11T11:04:58;1.60;99.90
22450;DHT22;11392;57.390;-2.468;2022-12-11T11:07:26;1.60;99.90
22450;DHT22;11392;57.390;-2.468;2022-12-11T11:10:26;1.60;99.90
22450;DHT22;11392;57.390;-2.468;2022-12-11T11:13:00;1.50;99.90
22450;DHT22;11392;57.390;-2.468;2022-12-11T11:15:29;1.60;99.90
22450;DHT22;11392;57.390;-2.468;2022-12-11T11:18:01;1.80;99.90
22450;DHT22;11392;57.390;-2.468;2022-12-11T11:20:30;1.90;99.90
22450;DHT22;11392;57.390;-2.468;2022-12-11T11:23:03;1.90;99.90
22450;DHT22;11392;57.390;-2.468;2022-12-11T11:25:34;1.90;99.90
22450;DHT22;11392;57.390;-2.468;2022-12-11T11:28:04;1.90;99.90
22450;DHT22;11392;57.390;-2.468;2022-12-11T11:30:41;1.90;99.90
22450;DHT22;11392;57.390;-2.468;2022-12-11T11:33:20;1.90;99.90
22450;DHT22;11392;57.390;-2.468;2022-12-11T11:38:25;1.70;99.90
22450;DHT22;11392;57.390;-2.468;2022-12-11T11:41:19;1.70;99.90
22450;DHT22;11392;57.390;-2.468;2022-12-11T11:43:51;1.70;99.90
22450;DHT22;11392;57.390;-2.468;2022-12-11T11:49:23;1.60;99.90
22450;DHT22;11392;57.390;-2.468;2022-12-11T11:52:07;1.60;99.90
22450;DHT22;11392;57.390;-2.468;2022-12-11T11:57:34;1.70;99.90
22450;DHT22;11392;57.390;-2.468;2022-12-11T12:00:41;1.70;99.90
22450;DHT22;11392;57.390;-2.468;2022-12-11T12:03:14;1.70;99.90
22450;DHT22;11392;57.390;-2.468;2022-12-11T12:05:56;1.80;99.90
22450;DHT22;11392;57.390;-2.468;2022-12-11T12:20:54;2.10;99.90
22450;DHT22;11392;57.390;-2.468;2022-12-11T12:25:51;2.30;99.90
22450;DHT22;11392;57.390;-2.468;2022-12-11T12:28:38;2.30;99.90
22450;DHT22;11392;57.390;-2.468;2022-12-11T12:31:23;2.20;99.90
22450;DHT22;11392;57.390;-2.468;2022-12-11T12:39:43;2.40;99.90
22450;DHT22;11392;57.390;-2.468;2022-12-11T12:42:36;2.50;99.90
22450;DHT22;11392;57.390;-2.468;2022-12-11T12:45:15;2.50;99.90
22450;DHT22;11392;57.390;-2.468;2022-12-11T12:47:45;2.40;99.90
22450;DHT22;11392;57.390;-2.468;2022-12-11T12:50:24;2.20;99.90
22450;DHT22;11392;57.390;-2.468;2022-12-11T12:52:53;2.00;99.90
22450;DHT22;11392;57.390;-2.468;2022-12-11T12:55:26;2.10;99.90
22450;DHT22;11392;57.390;-2.468;2022-12-11T12:57:57;2.10;99.90
22450;DHT22;11392;57.390;-2.468;2022-12-11T13:00:38;2.00;99.90
22450;DHT22;11392;57.390;-2.468;2022-12-11T13:03:20;1.90;99.90
22450;DHT22;11392;57.390;-2.468;2022-12-11T13:06:06;1.90;99.90
22450;DHT22;11392;57.390;-2.468;2022-12-11T13:11:12;1.70;99.90
22450;DHT22;11392;57.390;-2.468;2022-12-11T13:13:44;1.70;99.90
22450;DHT22;11392;57.390;-2.468;2022-12-11T13:16:24;1.60;99.90
22450;DHT22;11392;57.390;-2.468;2022-12-11T13:18:55;1.60;99.90
22450;DHT22;11392;57.390;-2.468;2022-12-11T13:21:30;1.70;99.90
22450;DHT22;11392;57.390;-2.468;2022-12-11T13:24:16;1.60;99.90
22450;DHT22;11392;57.390;-2.468;2022-12-11T13:26:50;1.60;99.90
22450;DHT22;11392;57.390;-2.468;2022-12-11T13:29:29;1.60;99.90
22450;DHT22;11392;57.390;-2.468;2022-12-11T13:31:59;1.50;99.90
22450;DHT22;11392;57.390;-2.468;2022-12-11T13:34:31;1.50;99.90
22450;DHT22;11392;57.390;-2.468;2022-12-11T13:37:00;1.50;99.90
22450;DHT22;11392;57.390;-2.468;2022-12-11T13:39:36;1.40;99.90
22450;DHT22;11392;57.390;-2.468;2022-12-11T13:42:07;1.50;99.90
22450;DHT22;11392;57.390;-2.468;2022-12-11T13:44:47;1.40;99.90
22450;DHT22;11392;57.390;-2.468;2022-12-11T13:47:16;1.40;99.90
22450;DHT22;11392;57.390;-2.468;2022-12-11T13:49:48;1.40;99.90
22450;DHT22;11392;57.390;-2.468;2022-12-11T13:52:21;1.40;99.90
22450;DHT22;11392;57.390;-2.468;2022-12-11T13:54:52;1.30;99.90
22450;DHT22;11392;57.390;-2.468;2022-12-11T13:57:24;1.20;99.90
22450;DHT22;11392;57.390;-2.468;2022-12-11T13:59:57;1.10;99.90
22450;DHT22;11392;57.390;-2.468;2022-12-11T14:02:37;1.00;99.90
22450;DHT22;11392;57.390;-2.468;2022-12-11T14:05:08;1.00;99.90
22450;DHT22;11392;57.390;-2.468;2022-12-11T14:07:42;1.00;99.90
22450;DHT22;11392;57.390;-2.468;2022-12-11T14:10:31;1.10;99.90
22450;DHT22;11392;57.390;-2.468;2022-12-11T14:12:59;1.10;99.90
22450;DHT22;11392;57.390;-2.468;2022-12-11T14:15:29;1.20;99.90
22450;DHT22;11392;57.390;-2.468;2022-12-11T14:17:58;1.30;99.90
22450;DHT22;11392;57.390;-2.468;2022-12-11T14:20:28;1.60;99.90
22450;DHT22;11392;57.390;-2.468;2022-12-11T14:23:17;1.90;99.90
22450;DHT22;11392;57.390;-2.468;2022-12-11T14:26:15;2.30;99.90
22450;DHT22;11392;57.390;-2.468;2022-12-11T14:28:43;2.50;99.90
22450;DHT22;11392;57.390;-2.468;2022-12-11T14:31:14;2.80;99.90
22450;DHT22;11392;57.390;-2.468;2022-12-11T14:33:49;3.00;99.90
22450;DHT22;11392;57.390;-2.468;2022-12-11T14:36:17;3.20;99.90
22450;DHT22;11392;57.390;-2.468;2022-12-11T14:38:48;3.50;99.90
22450;DHT22;11392;57.390;-2.468;2022-12-11T14:41:30;3.80;99.90
22450;DHT22;11392;57.390;-2.468;2022-12-11T14:44:01;4.00;99.90
22450;DHT22;11392;57.390;-2.468;2022-12-11T14:46:35;3.90;99.90
22450;DHT22;11392;57.390;-2.468;2022-12-11T14:49:37;3.90;99.90
22450;DHT22;11392;57.390;-2.468;2022-12-11T14:52:16;3.50;99.90
22450;DHT22;11392;57.390;-2.468;2022-12-11T14:54:55;3.20;99.90
22450;DHT22;11392;57.390;-2.468;2022-12-11T14:57:28;3.30;99.90
22450;DHT22;11392;57.390;-2.468;2022-12-11T14:59:56;3.20;99.90
22450;DHT22;11392;57.390;-2.468;2022-12-11T15:02:33;2.90;99.90
22450;DHT22;11392;57.390;-2.468;2022-12-11T15:05:16;2.40;99.90
22450;DHT22;11392;57.390;-2.468;2022-12-11T15:08:19;2.30;99.90
22450;DHT22;11392;57.390;-2.468;2022-12-11T15:11:10;2.10;99.90
22450;DHT22;11392;57.390;-2.468;2022-12-11T15:13:49;2.20;99.90
22450;DHT22;11392;57.390;-2.468;2022-12-11T15:16:18;2.20;99.90
22450;DHT22;11392;57.390;-2.468;2022-12-11T15:18:50;2.20;99.90
22450;DHT22;11392;57.390;-2.468;2022-12-11T15:21:18;2.10;99.90
22450;DHT22;11392;57.390;-2.468;2022-12-11T15:23:55;2.00;99.90
22450;DHT22;11392;57.390;-2.468;2022-12-11T15:26:35;1.90;99.90
22450;DHT22;11392;57.390;-2.468;2022-12-11T15:29:05;1.80;99.90
22450;DHT22;11392;57.390;-2.468;2022-12-11T15:31:34;1.70;99.90
22450;DHT22;11392;57.390;-2.468;2022-12-11T15:34:01;1.60;99.90
22450;DHT22;11392;57.390;-2.468;2022-12-11T15:36:34;1.50;99.90
22450;DHT22;11392;57.390;-2.468;2022-12-11T15:39:03;1.50;99.90
22450;DHT22;11392;57.390;-2.468;2022-12-11T15:41:34;1.50;99.90
22450;DHT22;11392;57.390;-2.468;2022-12-11T15:44:03;1.40;99.90
22450;DHT22;11392;57.390;-2.468;2022-12-11T15:46:34;1.40;99.90
22450;DHT22;11392;57.390;-2.468;2022-12-11T15:49:08;1.30;99.90
22450;DHT22;11392;57.390;-2.468;2022-12-11T15:51:37;1.30;99.90
22450;DHT22;11392;57.390;-2.468;2022-12-11T15:54:09;1.20;99.90
22450;DHT22;11392;57.390;-2.468;2022-12-11T15:56:36;1.00;99.90
22450;DHT22;11392;57.390;-2.468;2022-12-11T15:59:04;1.00;99.90
22450;DHT22;11392;57.390;-2.468;2022-12-11T16:01:32;0.90;99.90
22450;DHT22;11392;57.390;-2.468;2022-12-11T16:04:00;0.80;99.90
22450;DHT22;11392;57.390;-2.468;2022-12-11T16:06:31;0.70;99.90
22450;DHT22;11392;57.390;-2.468;2022-12-11T16:08:58;0.60;99.90
22450;DHT22;11392;57.390;-2.468;2022-12-11T16:11:25;0.60;99.90
22450;DHT22;11392;57.390;-2.468;2022-12-11T16:13:52;0.60;99.90
22450;DHT22;11392;57.390;-2.468;2022-12-11T16:16:19;0.50;99.90
22450;DHT22;11392;57.390;-2.468;2022-12-11T16:18:46;0.40;99.90
22450;DHT22;11392;57.390;-2.468;2022-12-11T16:21:13;0.40;99.90
22450;DHT22;11392;57.390;-2.468;2022-12-11T16:23:47;0.40;99.90
22450;DHT22;11392;57.390;-2.468;2022-12-11T16:26:14;0.30;99.90
22450;DHT22;11392;57.390;-2.468;2022-12-11T16:28:41;0.20;99.90
22450;DHT22;11392;57.390;-2.468;2022-12-11T16:31:10;0.20;99.90
22450;DHT22;11392;57.390;-2.468;2022-12-11T16:33:38;0.20;99.90
22450;DHT22;11392;57.390;-2.468;2022-12-11T16:36:17;0.10;99.90
22450;DHT22;11392;57.390;-2.468;2022-12-11T16:38:45;0.10;99.90
22450;DHT22;11392;57.390;-2.468;2022-12-11T16:41:19;0.10;99.90
22450;DHT22;11392;57.390;-2.468;2022-12-11T16:43:46;0.10;99.90
22450;DHT22;11392;57.390;-2.468;2022-12-11T16:46:17;0.10;99.90
22450;DHT22;11392;57.390;-2.468;2022-12-11T16:48:44;0.00;99.90
22450;DHT22;11392;57.390;-2.468;2022-12-11T16:51:11;0.00;99.90
22450;DHT22;11392;57.390;-2.468;2022-12-11T16:53:38;0.00;99.90
22450;DHT22;11392;57.390;-2.468;2022-12-11T16:56:06;0.00;99.90
22450;DHT22;11392;57.390;-2.468;2022-12-11T16:58:33;-0.10;99.90
22450;DHT22;11392;57.390;-2.468;2022-12-11T17:01:07;-0.10;99.90
22450;DHT22;11392;57.390;-2.468;2022-12-11T17:03:38;-0.10;99.90
22450;DHT22;11392;57.390;-2.468;2022-12-11T17:06:07;-0.20;99.90
22450;DHT22;11392;57.390;-2.468;2022-12-11T17:08:34;-0.20;99.90